Time;durP1;ratioP1;P1;durP2;ratioP2;P2;SDS_P1;SDS_P2;PMS_P1;PMS_P2;Temp;Humidity;BMP_temperature;BMP_pressure;BME280_temperature;BME280_humidity;BME280_pressure;Samples;Min_cycle;Max_cycle;Signal;HPM_P1;HPM_P2
2021/03/06 00:00:31;;;;;;;42.58;27.60;;;;;;;11.16;68.45;101052.50;5052861;28;19916;-70
2021/03/06 00:03:35;;;;;;;35.90;29.15;;;;;;;11.04;68.87;101057.03;5057705;28;20041;-70
2021/03/06 00:06:39;;;;;;;45.50;28.95;;;;;;;11.01;68.75;101061.81;5057015;28;20052;-70
2021/03/06 00:09:43;;;;;;;38.33;28.35;;;;;;;11.04;69.08;101066.91;5052473;28;20484;-73
2021/03/06 00:12:49;;;;;;;41.67;28.75;;;;;;;10.97;69.05;101066.56;5056219;28;20041;-76
2021/03/06 00:15:54;;;;;;;41.85;28.63;;;;;;;11.02;69.21;101072.41;5056632;28;20045;-76
2021/03/06 00:18:58;;;;;;;35.55;27.17;;;;;;;11.10;68.86;101078.06;5056883;28;20037;-71
2021/03/06 00:22:03;;;;;;;41.67;30.02;;;;;;;11.13;68.72;101076.97;5056674;28;20040;-75
2021/03/06 00:25:09;;;;;;;42.55;29.65;;;;;;;11.18;68.61;101090.88;5056821;28;20033;-72
2021/03/06 00:28:14;;;;;;;40.83;28.17;;;;;;;11.18;68.51;101087.34;5056437;28;20040;-71
2021/03/06 00:31:18;;;;;;;44.08;29.67;;;;;;;11.16;68.72;101094.69;5056003;28;20044;-70
2021/03/06 00:34:22;;;;;;;42.17;29.80;;;;;;;11.18;68.61;101100.78;5056837;28;20488;-70
2021/03/06 00:37:27;;;;;;;41.20;30.30;;;;;;;11.13;69.05;101096.59;5055932;28;20477;-71
2021/03/06 00:40:31;;;;;;;40.95;28.75;;;;;;;11.08;69.30;101108.69;5057008;28;20044;-69
2021/03/06 00:43:35;;;;;;;40.67;31.15;;;;;;;10.99;69.41;101112.94;5056717;28;20041;-70
2021/03/06 00:46:39;;;;;;;44.03;32.13;;;;;;;10.95;69.48;101114.16;5055854;28;20053;-70
2021/03/06 00:49:44;;;;;;;49.17;31.60;;;;;;;10.89;69.97;101120.00;5056038;28;20049;-70
2021/03/06 00:52:49;;;;;;;46.08;33.83;;;;;;;10.77;70.54;101131.69;5055687;28;20048;-70
2021/03/06 00:55:53;;;;;;;50.20;34.45;;;;;;;10.75;71.74;101127.41;5055445;28;20053;-70
2021/03/06 00:58:57;;;;;;;45.25;36.95;;;;;;;10.69;72.89;101142.13;5055654;28;20040;-70
2021/03/06 01:02:03;;;;;;;50.80;39.75;;;;;;;10.59;74.26;101138.44;5055736;28;20041;-70
2021/03/06 01:05:07;;;;;;;55.42;42.28;;;;;;;10.55;75.11;101150.38;5055414;28;20048;-70
2021/03/06 01:08:11;;;;;;;58.20;45.28;;;;;;;10.55;75.92;101155.75;5054752;28;20053;-70
2021/03/06 01:11:15;;;;;;;63.72;48.75;;;;;;;10.46;77.00;101161.81;5056969;28;20044;-76
2021/03/06 01:14:20;;;;;;;71.55;49.63;;;;;;;10.37;77.93;101162.47;5055700;28;20056;-80
2021/03/06 01:17:24;;;;;;;61.53;49.63;;;;;;;10.37;77.85;101173.22;5054965;28;20052;-79
2021/03/06 01:20:29;;;;;;;64.32;50.45;;;;;;;10.35;78.58;101177.84;5056052;28;20396;-79
2021/03/06 01:23:33;;;;;;;68.43;50.17;;;;;;;10.28;79.29;101179.28;5054785;28;20041;-74
2021/03/06 01:26:38;;;;;;;61.80;49.28;;;;;;;10.34;79.20;101192.25;5056204;28;20052;-73
2021/03/06 01:29:42;;;;;;;66.10;48.15;;;;;;;10.31;79.13;101187.97;5033721;28;20046;-70
2021/03/06 01:32:47;;;;;;;60.25;47.80;;;;;;;10.28;79.52;101188.19;5034488;28;20049;-70
2021/03/06 01:35:51;;;;;;;62.88;51.25;;;;;;;10.33;79.52;101195.91;5035509;28;20045;-71
2021/03/06 01:38:55;;;;;;;65.65;50.22;;;;;;;10.27;79.84;101204.41;5035793;28;20045;-69
2021/03/06 01:41:59;;;;;;;66.15;51.75;;;;;;;10.27;79.97;101199.03;5035325;28;20049;-70
2021/03/06 01:45:05;;;;;;;62.78;51.50;;;;;;;10.25;80.36;101209.00;5035943;28;20045;-70
2021/03/06 01:48:10;;;;;;;69.63;53.75;;;;;;;10.24;80.48;101210.84;5057696;28;20053;-70
2021/03/06 01:51:15;;;;;;;68.45;54.53;;;;;;;10.16;80.88;101210.53;5035556;28;20050;-70
2021/03/06 01:54:22;;;;;;;65.00;53.55;;;;;;;10.19;81.51;101213.00;5046114;28;20392;-70
2021/03/06 01:57:26;;;;;;;71.57;54.72;;;;;;;10.18;81.79;101213.97;5034584;28;20049;-70
2021/03/06 02:00:32;;;;;;;74.25;56.22;;;;;;;10.16;82.07;101215.06;5034788;28;20041;-70
2021/03/06 02:03:36;;;;;;;73.68;56.70;;;;;;;10.17;82.39;101219.47;5035269;28;20389;-71
2021/03/06 02:06:40;;;;;;;79.72;59.78;;;;;;;10.17;82.67;101231.03;5034781;28;20046;-69
2021/03/06 02:09:45;;;;;;;73.43;58.75;;;;;;;10.10;83.56;101231.53;5034565;28;20041;-69
2021/03/06 02:13:05;;;;;;;60.80;47.97;;;;;;;10.04;83.71;101235.53;5034786;28;20037;-69
2021/03/06 02:16:15;;;;;;;37.40;29.45;;;;;;;9.96;82.26;101234.34;5035215;28;20053;-69
2021/03/06 02:19:49;;;;;;;27.55;20.02;;;;;;;9.78;81.61;101249.91;5034486;28;20064;-70
2021/03/06 02:23:22;;;;;;;26.88;15.60;;;;;;;9.73;81.34;101249.38;5034915;28;20060;-70
2021/03/06 02:26:33;;;;;;;21.90;12.02;;;;;;;9.59;81.01;101255.72;5029204;28;20064;-70
2021/03/06 02:29:44;;;;;;;21.30;11.05;;;;;;;9.54;81.40;101263.22;5034835;28;20049;-69
2021/03/06 02:32:50;;;;;;;22.52;10.68;;;;;;;9.51;81.30;101265.25;5035030;28;20060;-69
2021/03/06 02:35:56;;;;;;;20.63;10.27;;;;;;;9.45;81.40;101271.91;5034838;28;20056;-70
2021/03/06 02:39:04;;;;;;;19.05;8.88;;;;;;;9.41;81.36;101274.88;5034901;28;20068;-69
2021/03/06 02:42:11;;;;;;;20.73;8.13;;;;;;;9.36;82.01;101291.25;5034610;28;20052;-70
2021/03/06 02:45:16;;;;;;;20.02;6.22;;;;;;;9.24;81.15;101268.00;5034698;28;20064;-69
2021/03/06 02:48:21;;;;;;;18.67;5.80;;;;;;;9.22;80.61;101288.66;5034468;28;20049;-70
2021/03/06 02:51:34;;;;;;;23.38;6.10;;;;;;;9.16;80.37;101287.25;5033625;28;20044;-70
2021/03/06 02:54:38;;;;;;;15.73;5.95;;;;;;;9.14;80.49;101283.81;5034337;28;20060;-70
2021/03/06 02:57:52;;;;;;;16.23;5.07;;;;;;;9.14;79.72;101285.63;5033960;28;20057;-70
2021/03/06 03:01:10;;;;;;;16.10;5.18;;;;;;;9.12;79.55;101292.94;5034331;28;20049;-69
2021/03/06 03:04:41;;;;;;;21.25;5.20;;;;;;;8.98;80.06;101296.53;5034273;28;20044;-69
2021/03/06 03:08:21;;;;;;;18.15;5.13;;;;;;;8.95;80.03;101304.75;5033429;28;20048;-70
2021/03/06 03:11:35;;;;;;;16.52;5.03;;;;;;;8.98;80.19;101298.34;5040228;28;20052;-70
2021/03/06 03:14:57;;;;;;;;;;;;;;;8.85;80.38;101311.69;5034899;28;20052;-69
2021/03/06 03:18:03;;;;;;;21.27;5.07;;;;;;;8.84;81.38;101303.75;5034044;28;19917;-70
2021/03/06 03:21:09;;;;;;;20.73;5.22;;;;;;;8.84;81.20;101306.44;5033624;28;20045;-70
2021/03/06 03:24:17;;;;;;;14.40;4.90;;;;;;;8.81;81.42;101317.34;5033124;28;20052;-71
2021/03/06 03:27:23;;;;;;;23.48;6.03;;;;;;;8.72;82.00;101320.59;5034022;28;20491;-69
2021/03/06 03:30:28;;;;;;;22.10;6.40;;;;;;;8.70;82.52;101314.47;5033306;28;20052;-72
2021/03/06 03:33:34;;;;;;;18.15;5.70;;;;;;;8.70;82.65;101322.50;5033095;28;20057;-71
2021/03/06 03:36:40;;;;;;;21.83;6.25;;;;;;;8.70;82.74;101334.09;5036213;28;20056;-71
2021/03/06 03:39:46;;;;;;;17.08;6.10;;;;;;;8.74;83.26;101337.44;5038014;28;20052;-71
2021/03/06 03:42:50;;;;;;;19.48;5.35;;;;;;;8.78;82.97;101341.63;5038062;28;20405;-70
2021/03/06 03:45:55;;;;;;;18.88;5.82;;;;;;;8.78;82.45;101338.94;5037113;28;20068;-69
2021/03/06 03:49:04;;;;;;;18.15;5.90;;;;;;;8.74;82.30;101350.81;5038091;28;20056;-70
2021/03/06 03:52:09;;;;;;;18.83;5.90;;;;;;;8.66;82.91;101356.66;5037005;28;20052;-70
2021/03/06 03:55:14;;;;;;;21.17;6.35;;;;;;;8.61;83.46;101374.81;5037730;28;20056;-70
2021/03/06 03:58:18;;;;;;;19.15;6.35;;;;;;;8.59;83.46;101370.53;5037682;28;20060;-70
2021/03/06 04:01:22;;;;;;;23.13;7.22;;;;;;;8.56;84.14;101371.59;5037579;28;20056;-69
2021/03/06 04:04:26;;;;;;;22.17;7.55;;;;;;;8.52;84.88;101379.91;5037445;28;20045;-69
2021/03/06 04:07:48;;;;;;;20.92;7.03;;;;;;;8.52;85.18;101384.28;5036701;28;20416;-70
2021/03/06 04:10:52;;;;;;;25.48;7.57;;;;;;;8.61;85.18;101387.34;5037757;28;20048;-69
2021/03/06 04:13:56;;;;;;;22.45;7.18;;;;;;;8.58;85.34;101390.19;5036811;28;20511;-70
2021/03/06 04:17:00;;;;;;;18.88;7.47;;;;;;;8.53;86.15;101401.19;5037340;28;20492;-69
2021/03/06 04:20:07;;;;;;;21.58;8.00;;;;;;;8.47;86.73;101423.84;5037504;28;20053;-69
2021/03/06 04:23:11;;;;;;;15.27;5.65;;;;;;;8.44;86.27;101415.16;5036412;28;20496;-70
2021/03/06 04:26:16;;;;;;;17.95;5.38;;;;;;;8.39;86.73;101422.63;5036912;28;20088;-69
2021/03/06 04:29:21;;;;;;;14.02;5.80;;;;;;;8.31;87.36;101428.44;5037062;28;20072;-69
2021/03/06 04:32:25;;;;;;;17.63;5.78;;;;;;;8.29;88.00;101427.66;5036990;28;20492;-70
2021/03/06 04:35:29;;;;;;;16.50;5.88;;;;;;;8.19;88.78;101439.84;5044595;28;20044;-71
2021/03/06 04:38:34;;;;;;;20.75;5.72;;;;;;;8.09;89.56;101444.03;5041518;28;20048;-70
2021/03/06 04:41:38;;;;;;;15.23;5.10;;;;;;;7.98;90.62;101456.28;5056869;28;20056;-69
2021/03/06 04:44:42;;;;;;;18.08;6.35;;;;;;;7.92;90.94;101454.88;5056747;28;20158;-69
2021/03/06 04:47:46;;;;;;;21.90;6.25;;;;;;;7.91;91.22;101462.97;5051675;28;20068;-69
2021/03/06 04:50:50;;;;;;;17.83;6.20;;;;;;;7.90;91.40;101469.28;5040220;28;20064;-68
2021/03/06 04:53:56;;;;;;;19.67;5.90;;;;;;;7.83;91.44;101482.13;5036807;28;20052;-70
2021/03/06 04:56:34;;;;;;;17.25;5.43;;;;;;;7.80;92.09;101468.97;5112097;27;20373;-70
2021/03/06 04:59:40;;;;;;;19.30;6.13;;;;;;;7.76;91.78;101484.31;5111056;28;20074;-69
2021/03/06 05:02:44;;;;;;;18.13;5.72;;;;;;;7.73;91.92;101481.81;5112047;28;20043;-70
2021/03/06 05:05:48;;;;;;;20.73;5.88;;;;;;;7.69;92.22;101496.31;5091270;28;20498;-70
2021/03/06 05:08:53;;;;;;;20.17;6.60;;;;;;;7.66;92.40;101492.94;5102340;28;20047;-70
2021/03/06 05:11:57;;;;;;;15.57;6.50;;;;;;;7.60;92.48;101495.97;5094206;28;20048;-70
2021/03/06 05:15:03;;;;;;;21.58;7.40;;;;;;;7.60;92.64;101495.97;5070979;28;20057;-70
2021/03/06 05:18:07;;;;;;;15.50;5.25;;;;;;;7.63;91.69;101506.47;5071002;28;20067;-71
2021/03/06 05:21:11;;;;;;;12.45;5.50;;;;;;;7.50;90.58;101506.31;5105969;28;20498;-70
2021/03/06 05:24:15;;;;;;;10.63;5.55;;;;;;;7.46;90.31;101512.78;5111445;28;20063;-70
2021/03/06 05:27:20;;;;;;;14.50;4.93;;;;;;;7.38;89.53;101515.00;5111670;28;20391;-69
2021/03/06 05:30:24;;;;;;;12.25;5.10;;;;;;;7.31;88.96;101523.47;5110418;28;20050;-68
2021/03/06 05:33:28;;;;;;;11.77;5.20;;;;;;;7.28;89.41;101526.31;5069826;28;20056;-69
2021/03/06 05:36:33;;;;;;;13.15;4.43;;;;;;;7.29;88.45;101523.53;5100643;28;20054;-71
2021/03/06 05:39:36;;;;;;;;;;;;;;;7.19;88.80;101533.88;5103459;28;20054;-70
2021/03/06 05:42:41;;;;;;;14.35;5.03;;;;;;;7.15;88.52;101535.00;5111401;28;19915;-70
2021/03/06 05:45:46;;;;;;;10.43;5.57;;;;;;;7.12;88.85;101540.50;5069384;28;20055;-70
2021/03/06 05:48:53;;;;;;;16.98;5.18;;;;;;;7.11;89.17;101529.91;5070677;28;20060;-70
2021/03/06 05:52:00;;;;;;;16.85;4.95;;;;;;;7.13;89.36;101542.19;5086423;28;20059;-74
2021/03/06 05:55:04;;;;;;;73.97;49.60;;;;;;;7.12;89.48;101547.63;5088378;28;20498;-71
2021/03/06 05:58:09;;;;;;;17.00;6.70;;;;;;;7.11;89.69;101554.78;5102301;28;20051;-71
2021/03/06 06:01:15;;;;;;;11.00;4.78;;;;;;;7.15;90.08;101558.16;5086992;28;20044;-72
2021/03/06 06:04:19;;;;;;;12.82;4.63;;;;;;;7.13;90.15;101566.22;5086916;28;20047;-71
2021/03/06 06:07:24;;;;;;;13.35;4.55;;;;;;;7.19;90.16;101581.06;5077807;28;20060;-72
2021/03/06 06:10:30;;;;;;;11.02;4.72;;;;;;;7.17;90.17;101575.81;5074718;28;20047;-71
2021/03/06 06:13:34;;;;;;;12.70;5.00;;;;;;;7.17;90.47;101583.81;5073451;28;20040;-74
2021/03/06 06:16:39;;;;;;;12.65;4.80;;;;;;;7.17;90.38;101590.97;5070988;28;20043;-73
2021/03/06 06:19:44;;;;;;;11.57;4.78;;;;;;;7.19;90.77;101600.63;5084513;28;20043;-75
2021/03/06 06:23:06;;;;;;;10.18;5.10;;;;;;;7.16;90.94;101597.25;5075011;28;20036;-73
2021/03/06 06:26:11;;;;;;;12.52;4.57;;;;;;;7.14;91.28;101616.03;5075251;28;20040;-74
2021/03/06 06:29:15;;;;;;;10.40;4.68;;;;;;;7.21;91.10;101605.88;5073222;28;20573;-76
2021/03/06 06:32:21;;;;;;;10.18;4.35;;;;;;;7.15;91.30;101624.91;5073593;28;20051;-76
2021/03/06 06:35:25;;;;;;;11.93;5.50;;;;;;;7.11;90.91;101618.84;5070774;28;20052;-77
2021/03/06 06:38:44;;;;;;;10.48;5.28;;;;;;;7.00;91.41;101620.38;5081177;28;20044;-75
2021/03/06 06:41:57;;;;;;;11.43;5.45;;;;;;;7.11;91.43;101628.69;5076853;28;20039;-72
2021/03/06 06:45:03;;;;;;;13.67;5.53;;;;;;;7.08;91.02;101637.72;5073738;28;20106;-74
2021/03/06 06:48:11;;;;;;;11.45;4.75;;;;;;;7.07;91.25;101641.34;5074401;28;20514;-72
2021/03/06 06:51:15;;;;;;;12.27;5.05;;;;;;;7.09;90.94;101642.09;5072807;28;20503;-70
2021/03/06 06:54:20;;;;;;;11.40;4.78;;;;;;;7.08;90.66;101650.22;5073017;28;20043;-72
2021/03/06 06:57:27;;;;;;;;;;;;;;;7.08;90.60;101651.06;5074196;28;20063;-78
2021/03/06 07:00:32;;;;;;;10.85;4.63;;;;;;;7.15;90.18;101665.81;5074542;28;19916;-73
2021/03/06 07:03:37;;;;;;;11.35;5.10;;;;;;;7.12;90.28;101659.78;5072715;28;20507;-71
2021/03/06 07:06:56;;;;;;;12.43;5.32;;;;;;;7.12;90.49;101675.78;5070409;28;20051;-74
2021/03/06 07:10:08;;;;;;;16.45;4.80;;;;;;;7.10;90.27;101675.00;5072437;28;20047;-78
2021/03/06 07:13:12;;;;;;;12.88;4.97;;;;;;;7.10;91.09;101681.22;5076946;28;20067;-73
2021/03/06 07:16:16;;;;;;;14.10;5.10;;;;;;;7.08;90.66;101675.09;5072279;28;20055;-71
2021/03/06 07:19:21;;;;;;;12.20;4.78;;;;;;;7.09;90.82;101684.81;5071296;28;20055;-71
2021/03/06 07:22:28;;;;;;;9.85;4.68;;;;;;;7.08;90.58;101687.59;5073562;28;20503;-72
2021/03/06 07:25:33;;;;;;;15.80;5.22;;;;;;;7.03;90.38;101698.50;5074262;28;20067;-74
2021/03/06 07:28:37;;;;;;;14.13;4.60;;;;;;;7.02;90.30;101698.56;5072153;28;20060;-75
2021/03/06 07:31:42;;;;;;;14.95;4.38;;;;;;;7.06;90.65;101692.97;5072641;28;20040;-69
2021/03/06 07:34:49;;;;;;;15.45;4.20;;;;;;;7.04;90.67;101710.88;5072336;28;20040;-75
2021/03/06 07:37:58;;;;;;;16.63;6.05;;;;;;;7.07;90.09;101709.88;5074043;28;20083;-72
2021/03/06 07:41:05;;;;;;;24.98;7.05;;;;;;;7.06;90.44;101702.81;5072602;28;20055;-77
2021/03/06 07:44:13;;;;;;;16.15;5.75;;;;;;;7.16;89.83;101741.44;5072750;28;20047;-76
2021/03/06 07:47:20;;;;;;;13.32;5.15;;;;;;;7.05;89.29;101731.31;5070921;28;20051;-71
2021/03/06 07:50:27;;;;;;;15.45;4.72;;;;;;;7.09;89.65;101738.22;5072668;28;20059;-77
2021/03/06 07:53:31;;;;;;;19.75;4.90;;;;;;;7.07;89.58;101739.22;5073456;28;20048;-73
2021/03/06 07:56:37;;;;;;;20.05;6.05;;;;;;;7.10;89.73;101747.97;5071223;28;20048;-74
2021/03/06 07:59:55;;;;;;;15.23;5.25;;;;;;;7.04;89.85;101753.59;5071988;28;20051;-74
2021/03/06 08:02:59;;;;;;;15.73;5.20;;;;;;;7.01;90.13;101756.41;5071053;28;20486;-74
2021/03/06 08:06:17;;;;;;;;;;;;;;;7.03;89.84;101761.69;5071630;28;20052;-72
2021/03/06 08:09:21;;;;;;;17.75;5.13;;;;;;;7.11;89.94;101765.69;5070944;28;19924;-74
2021/03/06 08:12:35;;;;;;;15.90;5.38;;;;;;;7.08;89.64;101779.22;5072175;28;20040;-70
2021/03/06 08:15:39;;;;;;;;;;;;;;;7.10;89.91;101777.34;5071766;28;20039;-75
2021/03/06 08:18:43;;;;;;;24.50;5.15;;;;;;;7.06;89.72;101774.91;5071802;28;19916;-78
2021/03/06 08:21:49;;;;;;;15.75;5.28;;;;;;;6.94;90.65;101783.50;5072729;28;20039;-83
2021/03/06 08:24:53;;;;;;;15.07;6.05;;;;;;;6.91;90.62;101783.69;5073108;28;20040;-79
2021/03/06 08:28:33;;;;;;;22.08;5.68;;;;;;;6.94;90.28;101786.16;5070840;28;20506;-75
2021/03/06 08:31:40;;;;;;;20.30;5.47;;;;;;;7.00;90.21;101789.41;5017544;28;20048;-72
2021/03/06 08:34:46;;;;;;;28.27;6.82;;;;;;;7.04;90.55;101799.00;5032158;28;20044;-79
2021/03/06 08:37:51;;;;;;;19.83;5.80;;;;;;;7.11;90.37;101795.06;5032076;28;20137;-75
2021/03/06 08:40:56;;;;;;;16.67;5.13;;;;;;;7.15;90.09;101806.47;5032023;28;20429;-77
2021/03/06 08:44:00;;;;;;;17.52;5.18;;;;;;;7.14;89.81;101800.25;5031985;28;20109;-74
2021/03/06 08:47:06;;;;;;;25.02;6.60;;;;;;;7.15;89.99;101814.47;5031940;28;20448;-74
2021/03/06 08:50:13;;;;;;;14.52;5.57;;;;;;;7.15;90.07;101810.00;5031424;28;20045;-73
2021/03/06 08:53:18;;;;;;;19.67;5.72;;;;;;;7.20;89.66;101809.78;5031583;28;20515;-76
2021/03/06 08:56:21;;;;;;;;;;;;;;;7.21;89.26;101816.81;5031598;28;20056;-76
2021/03/06 08:59:39;;;;;;;17.88;5.65;;;;;;;7.14;89.09;101808.25;5032116;28;19917;-74
2021/03/06 09:02:44;;;;;;;24.45;5.35;;;;;;;7.11;89.80;101808.41;5031907;28;20045;-77
2021/03/06 09:05:54;;;;;;;11.98;4.35;;;;;;;7.15;89.95;101822.50;5080240;28;20122;-71
2021/03/06 09:08:59;;;;;;;16.75;5.63;;;;;;;7.10;89.57;101816.50;5066029;28;20047;-73
2021/03/06 09:12:04;;;;;;;22.75;5.57;;;;;;;7.10;90.07;101827.19;5079815;28;20055;-77
2021/03/06 09:15:10;;;;;;;17.35;5.88;;;;;;;7.33;90.72;101823.38;5053635;28;20055;-76
2021/03/06 09:18:16;;;;;;;16.35;5.65;;;;;;;7.29;90.11;101825.31;5080602;28;20051;-76
2021/03/06 09:21:23;;;;;;;22.67;7.38;;;;;;;7.18;90.30;101828.53;5072140;28;20462;-71
2021/03/06 09:24:47;;;;;;;17.75;6.97;;;;;;;7.09;90.75;101829.00;5071569;28;20505;-74
2021/03/06 09:27:51;;;;;;;26.20;7.03;;;;;;;7.08;90.99;101831.75;5072932;28;20527;-70
2021/03/06 09:30:57;;;;;;;22.45;5.80;;;;;;;7.07;91.16;101833.53;5073727;28;20047;-69
2021/03/06 09:34:03;;;;;;;19.77;6.10;;;;;;;7.04;91.39;101838.16;5073489;28;20043;-70
2021/03/06 09:37:18;;;;;;;16.45;6.15;;;;;;;7.01;91.23;101844.50;5073455;28;20079;-75
2021/03/06 09:40:23;;;;;;;23.55;5.40;;;;;;;7.04;91.38;101851.50;5073502;28;20063;-71
2021/03/06 09:43:30;;;;;;;19.75;5.45;;;;;;;7.11;91.68;101845.78;5076418;28;20426;-69
2021/03/06 09:46:35;;;;;;;19.95;5.68;;;;;;;7.18;91.29;101849.88;5076395;28;20039;-68
2021/03/06 09:49:39;;;;;;;17.70;5.25;;;;;;;7.20;91.24;101861.38;5077089;28;20051;-70
2021/03/06 09:52:44;;;;;;;14.63;5.35;;;;;;;7.26;90.93;101865.53;5077061;28;20063;-71
2021/03/06 09:56:02;;;;;;;24.05;5.90;;;;;;;7.25;90.10;101863.81;5076275;28;20055;-70
2021/03/06 09:59:06;;;;;;;18.25;5.72;;;;;;;7.31;90.02;101868.81;5076976;28;20384;-70
2021/03/06 10:02:11;;;;;;;;;;;;;;;7.38;89.69;101872.91;5077307;28;20411;-70
2021/03/06 10:05:21;;;;;;;21.73;6.15;;;;;;;7.34;89.38;101873.16;5075711;28;19917;-70
2021/03/06 10:08:27;;;;;;;16.58;5.75;;;;;;;7.32;89.37;101877.72;5077001;28;20487;-70
2021/03/06 10:11:38;;;;;;;18.38;6.38;;;;;;;7.20;88.26;101872.06;5076679;28;20055;-69
2021/03/06 10:14:47;;;;;;;15.70;5.75;;;;;;;7.25;88.36;101873.63;5076597;28;20047;-70
2021/03/06 10:17:52;;;;;;;16.27;6.30;;;;;;;7.37;88.33;101886.34;5076521;28;20384;-69
2021/03/06 10:20:56;;;;;;;18.83;6.05;;;;;;;7.35;88.26;101872.22;5075586;28;20047;-69
2021/03/06 10:24:03;;;;;;;17.27;6.63;;;;;;;7.45;87.90;101886.84;5076434;28;20055;-74
2021/03/06 10:27:08;;;;;;;14.60;6.35;;;;;;;7.39;87.77;101884.47;5076394;28;20052;-72
2021/03/06 10:30:25;;;;;;;24.20;7.07;;;;;;;7.51;87.86;101886.53;5076258;28;20047;-68
2021/03/06 10:33:37;;;;;;;13.23;6.78;;;;;;;7.45;88.03;101894.88;5076298;28;20063;-69
2021/03/06 10:36:43;;;;;;;14.45;6.25;;;;;;;7.47;86.75;101892.97;5075871;28;20502;-73
2021/03/06 10:39:56;;;;;;;14.93;6.50;;;;;;;7.42;86.49;101916.38;5076124;28;20044;-68
2021/03/06 10:43:01;;;;;;;22.55;7.25;;;;;;;7.40;86.35;101894.22;5076198;28;20478;-68
2021/03/06 10:46:15;;;;;;;19.85;6.10;;;;;;;7.35;86.71;101898.94;5076034;28;20044;-70
2021/03/06 10:49:19;;;;;;;22.25;7.68;;;;;;;7.40;87.25;101888.88;5076285;28;20048;-68
2021/03/06 10:52:28;;;;;;;21.45;6.80;;;;;;;7.39;87.12;101898.69;5075066;28;20051;-69
2021/03/06 10:55:34;;;;;;;17.65;6.28;;;;;;;7.46;87.46;101908.13;5075279;28;20399;-68
2021/03/06 10:58:48;;;;;;;20.23;6.95;;;;;;;7.48;87.56;101908.06;5075037;28;20506;-69
2021/03/06 11:01:53;;;;;;;24.95;6.32;;;;;;;7.42;87.70;101903.91;5075766;28;20048;-70
2021/03/06 11:05:18;;;;;;;18.88;7.75;;;;;;;7.52;87.67;101909.63;5074843;28;20056;-71
2021/03/06 11:08:22;;;;;;;19.73;6.40;;;;;;;7.58;87.27;101906.66;5075628;28;20052;-71
2021/03/06 11:11:27;;;;;;;17.90;6.63;;;;;;;7.52;86.87;101898.94;5074727;28;20048;-71
2021/03/06 11:14:31;;;;;;;22.67;6.70;;;;;;;7.64;86.12;101895.66;5075805;28;20491;-70
2021/03/06 11:17:36;;;;;;;19.15;6.03;;;;;;;7.75;85.19;101895.97;5075406;28;20490;-70
2021/03/06 11:20:40;;;;;;;17.75;6.28;;;;;;;7.84;83.96;101899.03;5075259;28;20384;-70
2021/03/06 11:23:44;;;;;;;20.60;7.15;;;;;;;7.84;84.06;101892.81;5074419;28;20040;-71
2021/03/06 11:26:52;;;;;;;16.98;6.38;;;;;;;7.84;83.26;101885.69;5075219;28;20052;-70
2021/03/06 11:29:56;;;;;;;15.40;5.55;;;;;;;7.87;83.60;101890.00;5075188;28;20044;-70
2021/03/06 11:33:03;;;;;;;14.35;5.50;;;;;;;7.92;83.73;101897.78;5074290;28;20067;-70
2021/03/06 11:36:08;;;;;;;27.42;6.85;;;;;;;7.97;83.08;101885.03;5075051;28;20056;-70
2021/03/06 11:39:12;;;;;;;18.75;6.25;;;;;;;8.10;82.58;101892.31;5075025;28;20075;-70
2021/03/06 11:42:16;;;;;;;16.40;7.32;;;;;;;8.22;82.05;101885.47;5074947;28;20055;-70
2021/03/06 11:45:22;;;;;;;16.05;5.72;;;;;;;8.18;81.17;101878.53;5074855;28;20388;-70
2021/03/06 11:48:27;;;;;;;16.50;6.05;;;;;;;8.21;80.36;101878.38;5074802;28;20071;-70
2021/03/06 11:51:33;;;;;;;17.30;7.07;;;;;;;8.25;79.94;101878.13;5074736;28;20048;-70
2021/03/06 11:54:37;;;;;;;19.15;6.20;;;;;;;8.32;78.76;101876.88;5074362;28;20059;-74
2021/03/06 11:57:42;;;;;;;17.65;6.65;;;;;;;8.56;78.17;101879.16;5073647;28;20052;-70
2021/03/06 12:00:46;;;;;;;15.88;7.05;;;;;;;8.57;77.30;101864.84;5073762;28;20051;-75
2021/03/06 12:03:53;;;;;;;20.08;7.47;;;;;;;8.58;77.15;101866.56;5074220;28;20056;-70
2021/03/06 12:06:57;;;;;;;18.42;7.55;;;;;;;8.70;76.95;101857.84;5074449;28;20052;-71
2021/03/06 12:10:03;;;;;;;17.52;6.85;;;;;;;8.84;77.07;101852.59;5074329;28;20055;-70
2021/03/06 12:13:07;;;;;;;22.75;8.10;;;;;;;8.86;75.79;101843.50;5074457;28;20044;-69
2021/03/06 12:16:12;;;;;;;17.88;8.18;;;;;;;9.09;75.65;101847.53;5074360;28;20047;-68
2021/03/06 12:19:17;;;;;;;26.08;16.00;;;;;;;9.30;74.94;101840.94;5074268;28;20051;-70
2021/03/06 12:22:21;;;;;;;21.50;11.02;;;;;;;9.21;73.82;101837.94;5073141;28;20052;-75
2021/03/06 12:25:25;;;;;;;24.77;9.18;;;;;;;9.24;74.20;101845.78;5072856;28;20071;-74
2021/03/06 12:28:28;;;;;;;;;;;;;;;9.27;74.69;101841.13;5071882;28;20522;-74
2021/03/06 12:31:33;;;;;;;19.17;10.63;;;;;;;9.05;74.49;101844.19;5072218;28;19916;-79
2021/03/06 12:34:37;;;;;;;19.15;9.05;;;;;;;9.13;73.28;101841.91;5070721;28;20043;-75
2021/03/06 12:37:42;;;;;;;16.33;8.30;;;;;;;9.05;72.18;101840.66;5071004;28;20051;-79
2021/03/06 12:40:46;;;;;;;23.58;8.32;;;;;;;8.95;71.68;101829.59;5071628;28;20048;-71
2021/03/06 12:43:50;;;;;;;18.70;8.10;;;;;;;8.85;71.85;101825.72;5072253;28;20039;-72
2021/03/06 12:46:54;;;;;;;19.02;9.07;;;;;;;8.83;73.06;101822.28;5061232;28;20040;-78
2021/03/06 12:49:58;;;;;;;14.55;9.43;;;;;;;8.84;73.46;101823.16;5073000;28;20067;-70
2021/03/06 12:53:03;;;;;;;19.02;9.82;;;;;;;8.89;73.79;101826.41;5063059;28;20039;-75
2021/03/06 12:56:07;;;;;;;23.25;10.57;;;;;;;8.93;73.84;101819.94;5070692;28;20052;-75
2021/03/06 12:59:11;;;;;;;23.20;11.38;;;;;;;8.97;74.51;101818.78;5073000;28;20051;-72
2021/03/06 13:02:15;;;;;;;19.13;9.73;;;;;;;9.05;73.18;101813.84;5073006;28;20048;-75
2021/03/06 13:05:19;;;;;;;20.73;9.52;;;;;;;9.12;72.20;101817.91;5073873;28;20055;-77
2021/03/06 13:08:23;;;;;;;18.55;8.75;;;;;;;8.99;72.49;101807.03;5071553;28;20154;-73
2021/03/06 13:11:27;;;;;;;19.55;9.00;;;;;;;9.00;71.63;101799.88;5072995;28;20043;-72
2021/03/06 13:14:33;;;;;;;20.05;7.88;;;;;;;8.99;71.50;101800.81;5071961;28;20415;-74
2021/03/06 13:17:37;;;;;;;21.02;7.57;;;;;;;9.05;72.48;101803.16;5074277;28;20048;-76
2021/03/06 13:20:41;;;;;;;24.70;10.02;;;;;;;9.13;72.49;101804.41;5076263;28;20055;-75
2021/03/06 13:23:45;;;;;;;20.98;7.50;;;;;;;9.09;71.68;101791.28;5074497;28;20387;-75
2021/03/06 13:26:51;;;;;;;22.00;7.10;;;;;;;8.94;71.46;101797.53;5075979;28;20044;-70
2021/03/06 13:29:55;;;;;;;18.02;6.93;;;;;;;9.08;70.44;101794.94;5075689;28;20043;-69
2021/03/06 13:32:59;;;;;;;15.30;7.75;;;;;;;9.16;70.67;101789.97;5076523;28;20396;-73
2021/03/06 13:36:04;;;;;;;12.77;6.05;;;;;;;9.02;70.10;101798.84;5074748;28;20059;-70
2021/03/06 13:39:08;;;;;;;21.15;6.32;;;;;;;8.91;71.18;101795.06;5073099;28;20051;-74
2021/03/06 13:42:13;;;;;;;13.38;6.82;;;;;;;9.09;70.94;101786.81;5074374;28;20059;-75
2021/03/06 13:45:18;;;;;;;16.42;6.28;;;;;;;9.16;69.91;101785.47;5076023;28;20522;-72
2021/03/06 13:48:22;;;;;;;13.77;6.35;;;;;;;9.14;69.46;101782.03;5075365;28;20055;-78
2021/03/06 13:51:28;;;;;;;14.60;6.10;;;;;;;9.15;71.72;101777.56;5076580;28;20048;-79
2021/03/06 13:54:32;;;;;;;17.75;6.93;;;;;;;9.26;69.81;101774.25;5076492;28;20064;-79
2021/03/06 13:57:37;;;;;;;29.67;6.65;;;;;;;9.21;69.64;101769.13;5076495;28;20514;-77
2021/03/06 14:00:41;;;;;;;18.35;6.20;;;;;;;9.28;69.08;101773.19;5076428;28;20051;-74
2021/03/06 14:03:47;;;;;;;13.50;6.53;;;;;;;9.22;68.78;101765.50;5076785;28;20055;-72
2021/03/06 14:06:51;;;;;;;15.00;6.63;;;;;;;9.47;69.08;101771.13;5076943;28;20498;-75
2021/03/06 14:10:01;;;;;;;19.13;6.13;;;;;;;9.66;68.41;101763.69;5088828;28;20071;-74
2021/03/06 14:13:06;;;;;;;14.23;5.72;;;;;;;9.83;65.17;101763.50;5077719;28;20056;-74
2021/03/06 14:16:11;;;;;;;17.23;5.57;;;;;;;10.13;65.04;101757.19;5073626;28;20051;-73
2021/03/06 14:19:15;;;;;;;18.48;5.47;;;;;;;10.36;64.70;101761.94;5076211;28;20058;-73
2021/03/06 14:22:20;;;;;;;12.57;5.63;;;;;;;10.40;64.20;101755.41;5076312;28;20055;-81
2021/03/06 14:25:24;;;;;;;10.48;5.35;;;;;;;10.36;60.69;101753.91;5076522;28;20071;-76